Time;durP1;ratioP1;P1;durP2;ratioP2;P2;SDS_P1;SDS_P2;PMS_P1;PMS_P2;Temp;Humidity;BMP_temperature;BMP_pressure;BME280_temperature;BME280_humidity;BME280_pressure;Samples;Min_cycle;Max_cycle;Signal;HPM_P1;HPM_P2
2022/06/21 00:00:23;;;;;;;;;13.67;13.67;;;;;18.38;100.00;100922.09;5052311;28;45317;-72
2022/06/21 00:03:14;;;;;;;;;13.00;11.00;;;;;18.36;100.00;100904.88;5057980;28;45448;-72
2022/06/21 00:05:45;;;;;;;;;13.00;12.67;;;;;18.34;100.00;100907.06;5053922;28;45685;-71
2022/06/21 00:08:21;;;;;;;;;13.00;11.00;;;;;18.30;100.00;100923.38;5058388;28;45748;-72
2022/06/21 00:10:47;;;;;;;;;10.33;10.33;;;;;18.23;100.00;100911.63;5053480;28;46257;-72
2022/06/21 00:13:16;;;;;;;;;14.00;10.67;;;;;18.27;100.00;100909.19;5057069;28;45247;-70
2022/06/21 00:15:43;;;;;;;;;11.67;11.67;;;;;18.26;100.00;100904.72;5052592;28;45314;-71
2022/06/21 00:18:14;;;;;;;;;12.33;10.33;;;;;18.21;100.00;100894.38;5045524;28;47095;-72
2022/06/21 00:20:40;;;;;;;;;13.67;12.00;;;;;18.15;100.00;100890.69;5041761;28;45341;-66
2022/06/21 00:23:10;;;;;;;;;11.00;11.00;;;;;18.11;100.00;100892.31;5053047;28;45431;-68
2022/06/21 00:25:35;;;;;;;;;14.33;9.67;;;;;18.09;100.00;100883.41;5053311;28;45500;-66
2022/06/21 00:28:00;;;;;;;;;13.00;13.00;;;;;18.06;100.00;100885.84;5053330;28;45552;-66
2022/06/21 00:30:27;;;;;;;;;12.67;11.67;;;;;18.02;100.00;100879.97;5053798;28;45845;-66
2022/06/21 00:32:55;;;;;;;;;11.67;10.00;;;;;18.00;100.00;100888.53;5037274;28;45388;-66
2022/06/21 00:35:22;;;;;;;;;12.00;12.00;;;;;17.97;100.00;100891.00;5032710;28;45357;-67
2022/06/21 00:37:49;;;;;;;;;12.67;9.67;;;;;17.97;100.00;100885.44;5051986;28;45889;-66
2022/06/21 00:40:25;;;;;;;;;9.67;9.00;;;;;17.94;100.00;100891.50;5052032;28;45441;-70
2022/06/21 00:43:21;;;;;;;;;14.00;11.67;;;;;17.92;100.00;100888.13;5068624;28;45505;-67
2022/06/21 00:45:49;;;;;;;;;12.67;10.00;;;;;17.86;100.00;100903.84;5071894;28;45420;-68
2022/06/21 00:48:22;;;;;;;;;7.00;7.00;;;;;17.81;100.00;100890.75;5071069;28;45786;-69
2022/06/21 00:50:53;;;;;;;;;9.33;9.33;;;;;17.80;100.00;100891.81;5064951;28;46352;-67
2022/06/21 00:53:29;;;;;;;;;8.67;8.00;;;;;17.77;100.00;100870.16;5042530;28;45819;-66
2022/06/21 00:56:00;;;;;;;;;8.33;7.33;;;;;17.75;100.00;100883.41;5052911;28;45694;-68
2022/06/21 00:58:27;;;;;;;;;9.33;9.33;;;;;17.70;100.00;100875.03;5036210;28;46060;-67
2022/06/21 01:00:55;;;;;;;;;9.00;7.67;;;;;17.67;100.00;100875.53;5052863;28;45334;-67
2022/06/21 01:03:25;;;;;;;;;9.67;8.67;;;;;17.65;100.00;100886.03;5052201;28;45409;-67
2022/06/21 01:05:53;;;;;;;;;9.33;9.33;;;;;17.65;100.00;100892.44;5052394;28;45462;-70
2022/06/21 01:08:26;;;;;;;;;10.33;9.33;;;;;17.61;100.00;100899.56;5047728;28;45580;-70
2022/06/21 01:10:57;;;;;;;;;6.33;6.33;;;;;17.64;100.00;100903.78;5052799;28;46565;-71
2022/06/21 01:13:29;;;;;;;;;7.67;7.67;;;;;17.62;100.00;100903.19;5052548;28;45440;-70
2022/06/21 01:15:56;;;;;;;;;7.33;7.33;;;;;17.62;100.00;100904.03;5050487;28;45354;-71
2022/06/21 01:18:24;;;;;;;;;9.67;9.33;;;;;17.61;100.00;100909.81;5033406;28;45984;-68
2022/06/21 01:20:58;;;;;;;;;12.67;10.00;;;;;17.62;100.00;100905.97;5035565;28;46358;-66
2022/06/21 01:23:29;;;;;;;;;12.00;8.33;;;;;17.66;100.00;100901.56;5048787;28;45373;-66
2022/06/21 01:26:12;;;;;;;;;9.00;9.00;;;;;17.67;100.00;100902.44;5045594;28;45318;-66
2022/06/21 01:28:38;;;;;;;;;7.67;7.67;;;;;17.67;100.00;100896.88;5051414;28;45526;-68
2022/06/21 01:31:05;;;;;;;;;8.67;8.67;;;;;17.65;100.00;100897.97;5051627;28;46160;-67
2022/06/21 01:33:51;;;;;;;;;10.00;7.67;;;;;17.63;100.00;100882.66;5047580;28;45823;-70
2022/06/21 01:36:24;;;;;;;;;10.00;7.00;;;;;17.62;100.00;100892.09;5045660;28;45821;-70
2022/06/21 01:38:54;;;;;;;;;8.67;7.33;;;;;17.61;100.00;100893.19;5034407;28;45880;-71
2022/06/21 01:44:07;;;;;;;;;9.67;7.67;;;;;17.49;100.00;100890.50;5030584;28;45513;-81
2022/06/21 01:46:33;;;;;;;;;8.33;8.33;;;;;17.55;100.00;100906.13;5017377;28;45388;-82
2022/06/21 01:49:13;;;;;;;;;9.67;7.67;;;;;17.34;100.00;100887.47;5017666;28;45650;-82
2022/06/21 01:51:44;;;;;;;;;11.67;7.67;;;;;17.43;100.00;100910.91;5026069;28;47294;-80
2022/06/21 01:54:13;;;;;;;;;8.00;8.00;;;;;17.52;100.00;100939.06;5017662;28;45434;-79
2022/06/21 01:56:41;;;;;;;;;8.00;8.00;;;;;17.54;100.00;100926.63;5039135;28;45411;-79
2022/06/21 01:59:21;;;;;;;;;8.00;5.33;;;;;17.33;100.00;100908.78;5017802;28;45886;-79
2022/06/21 02:02:04;;;;;;;;;7.00;7.00;;;;;17.56;100.00;100956.88;5024005;28;45226;-81
2022/06/21 02:04:33;;;;;;;;;9.00;9.00;;;;;17.62;100.00;100972.53;5031787;28;45297;-79
2022/06/21 02:07:05;;;;;;;;;10.00;8.00;;;;;17.69;100.00;100983.44;5018232;28;45510;-79
2022/06/21 02:09:37;;;;;;;;;6.67;6.67;;;;;17.68;100.00;100985.41;5031273;28;45616;-79
2022/06/21 02:12:06;;;;;;;;;7.33;6.33;;;;;17.79;100.00;100992.78;5004413;28;48330;-81
2022/06/21 02:14:42;;;;;;;;;9.33;8.33;;;;;17.89;100.00;100989.38;5027924;28;45514;-80
2022/06/21 02:17:15;;;;;;;;;4.33;4.33;;;;;17.97;100.00;100994.50;5030561;28;45910;-81
2022/06/21 02:19:49;;;;;;;;;7.33;7.33;;;;;18.02;100.00;100987.34;5032095;28;46474;-81
2022/06/21 02:22:27;;;;;;;;;8.67;7.67;;;;;18.04;100.00;100986.03;5035687;28;47479;-82
2022/06/21 02:24:58;;;;;;;;;7.33;6.33;;;;;18.09;100.00;100977.75;5025740;28;45550;-82
2022/06/21 02:27:51;;;;;;;;;15.00;10.00;;;;;17.88;100.00;100925.78;5031523;28;45407;-84
2022/06/21 02:30:21;;;;;;;;;9.33;8.00;;;;;17.64;100.00;100871.31;5035828;28;45643;-78
2022/06/21 02:32:47;;;;;;;;;11.33;8.00;;;;;18.11;100.00;100944.19;5016293;28;47005;-78
2022/06/21 02:35:36;;;;;;;;;9.67;7.67;;;;;18.05;100.00;100932.19;5035350;28;45765;-80
2022/06/21 02:38:04;;;;;;;;;8.67;8.67;;;;;17.98;100.00;100914.88;5028794;28;46668;-79
2022/06/21 02:40:37;;;;;;;;;9.00;7.67;;;;;17.94;100.00;100910.94;5018654;28;45721;-79
2022/06/21 02:43:19;;;;;;;;;10.00;6.00;;;;;17.89;100.00;100885.84;5020039;28;45421;-78
2022/06/21 02:45:50;;;;;;;;;12.67;9.00;;;;;17.83;100.00;100883.00;5035876;28;45865;-78
2022/06/21 02:48:22;;;;;;;;;11.00;8.33;;;;;17.74;100.00;100867.88;5020727;28;45794;-79
2022/06/21 02:50:53;;;;;;;;;10.33;8.67;;;;;17.81;100.00;100874.09;5045143;28;45676;-79
2022/06/21 02:54:10;;;;;;;;;6.67;6.67;;;;;17.79;100.00;100875.44;5028612;28;46408;-82
2022/06/21 02:57:00;;;;;;;;;14.67;11.00;;;;;17.79;100.00;100880.97;4995122;28;45828;-77
2022/06/21 02:59:26;;;;;;;;;11.00;9.00;;;;;17.72;100.00;100878.38;5025846;28;45769;-80
2022/06/21 03:02:00;;;;;;;;;10.00;7.33;;;;;17.70;100.00;100888.88;5039671;28;46894;-78
2022/06/21 03:04:48;;;;;;;;;8.67;8.33;;;;;17.65;100.00;100872.19;5037163;28;46304;-80
2022/06/21 03:07:20;;;;;;;;;12.33;9.33;;;;;17.59;100.00;100887.91;5040600;28;45454;-82
2022/06/21 03:09:45;;;;;;;;;9.33;8.00;;;;;17.51;100.00;100879.97;5011717;28;45483;-82
2022/06/21 03:12:17;;;;;;;;;6.33;5.67;;;;;17.32;100.00;100853.59;5031405;28;45900;-81
2022/06/21 03:14:45;;;;;;;;;13.00;10.67;;;;;17.27;100.00;100848.81;5015019;28;46874;-80
2022/06/21 03:17:14;;;;;;;;;7.67;7.67;;;;;17.19;100.00;100833.44;5035730;28;45901;-80
2022/06/21 03:19:50;;;;;;;;;10.00;9.00;;;;;17.34;100.00;100856.97;5017735;28;45781;-80
2022/06/21 03:22:19;;;;;;;;;10.33;10.33;;;;;17.29;100.00;100846.66;5014397;28;45816;-79
2022/06/21 03:24:48;;;;;;;;;8.00;8.00;;;;;17.11;100.00;100820.84;5033856;28;45698;-81
2022/06/21 03:27:24;;;;;;;;;8.67;8.67;;;;;17.17;100.00;100837.53;5025989;28;45538;-80
2022/06/21 03:29:50;;;;;;;;;8.67;7.00;;;;;17.11;100.00;100834.69;5038320;28;45432;-80
2022/06/21 03:32:16;;;;;;;;;10.67;9.00;;;;;16.99;100.00;100803.47;5043234;28;45362;-78
2022/06/21 03:34:43;;;;;;;;;10.00;8.33;;;;;17.04;100.00;100805.47;5014491;28;46244;-78
2022/06/21 03:37:09;;;;;;;;;12.33;8.33;;;;;16.90;100.00;100785.53;5032517;28;45700;-80
2022/06/21 03:42:24;;;;;;;;;8.67;7.67;;;;;16.90;100.00;100782.78;5035512;28;45480;-79
2022/06/21 03:45:03;;;;;;;;;8.00;8.00;;;;;16.71;100.00;100760.00;5017123;28;46557;-79
2022/06/21 03:47:35;;;;;;;;;11.67;9.00;;;;;16.84;100.00;100773.53;5021195;28;45812;-79
2022/06/21 03:50:14;;;;;;;;;9.67;9.00;;;;;16.75;100.00;100764.78;5047229;28;45589;-80
2022/06/21 03:52:58;;;;;;;;;8.67;7.33;;;;;16.57;100.00;100742.84;5015609;28;45741;-79
2022/06/21 03:55:40;;;;;;;;;10.00;10.00;;;;;16.63;100.00;100761.25;5032771;28;45667;-80
2022/06/21 03:58:21;;;;;;;;;10.33;8.67;;;;;16.59;100.00;100757.28;5034085;28;45524;-79
2022/06/21 04:01:15;;;;;;;;;10.33;6.33;;;;;16.55;100.00;100743.09;5028537;28;45815;-80
2022/06/21 04:03:58;;;;;;;;;10.33;10.33;;;;;16.52;100.00;100748.28;5016221;28;45413;-80
2022/06/21 04:06:34;;;;;;;;;12.00;9.67;;;;;16.27;100.00;100710.72;5016241;28;46999;-80
2022/06/21 04:09:35;;;;;;;;;8.33;8.33;;;;;16.38;100.00;100737.50;5045414;28;45352;-81
2022/06/21 04:12:23;;;;;;;;;11.33;9.33;;;;;16.31;100.00;100742.34;5034276;28;45751;-78
2022/06/21 04:15:24;;;;;;;;;11.67;10.67;;;;;16.22;100.00;100744.66;5018837;28;45740;-76
2022/06/21 04:18:02;;;;;;;;;15.00;12.00;;;;;16.12;100.00;100746.41;5000349;28;45909;-77
2022/06/21 04:20:37;;;;;;;;;14.67;9.67;;;;;16.01;100.00;100751.72;5029726;28;45722;-76
2022/06/21 04:23:22;;;;;;;;;12.33;10.67;;;;;15.92;100.00;100760.66;5019845;28;45924;-74
2022/06/21 04:25:53;;;;;;;;;10.67;10.67;;;;;15.80;100.00;100755.16;5032644;28;46916;-76
2022/06/21 04:28:27;;;;;;;;;12.33;11.67;;;;;15.62;100.00;100751.41;5018828;28;45855;-76
2022/06/21 04:31:07;;;;;;;;;10.67;9.00;;;;;15.57;100.00;100750.47;5030572;28;45587;-79
2022/06/21 04:33:54;;;;;;;;;14.67;13.67;;;;;15.44;100.00;100746.03;5024137;28;45423;-78
2022/06/21 04:36:27;;;;;;;;;21.00;17.00;;;;;15.24;100.00;100744.50;5029710;28;45585;-78
2022/06/21 04:39:08;;;;;;;;;18.33;16.00;;;;;15.30;100.00;100762.00;5015815;28;45675;-79
2022/06/21 04:41:41;;;;;;;;;15.67;13.33;;;;;15.09;100.00;100733.06;5025155;28;45474;-76
2022/06/21 04:44:14;;;;;;;;;20.67;18.67;;;;;15.06;100.00;100744.59;5004362;28;45843;-74
2022/06/21 04:46:46;;;;;;;;;14.00;13.00;;;;;15.12;100.00;100752.78;5015683;28;46008;-76
2022/06/21 04:49:19;;;;;;;;;15.67;14.33;;;;;15.12;100.00;100751.91;5011212;28;46935;-79
2022/06/21 04:51:53;;;;;;;;;10.33;10.33;;;;;15.09;100.00;100752.38;5021521;28;45459;-78
2022/06/21 04:54:22;;;;;;;;;14.33;14.00;;;;;15.04;100.00;100747.59;5028934;28;45486;-77
2022/06/21 04:57:13;;;;;;;;;18.67;14.67;;;;;15.06;100.00;100750.09;5008168;28;46895;-80
2022/06/21 04:59:45;;;;;;;;;14.00;13.00;;;;;15.09;100.00;100735.81;5006545;28;46902;-80
2022/06/21 05:02:41;;;;;;;;;17.67;14.00;;;;;15.10;100.00;100740.25;5032553;28;45400;-85
2022/06/21 05:05:28;;;;;;;;;14.00;14.00;;;;;15.13;100.00;100742.56;5036471;28;45609;-80
2022/06/21 05:08:01;;;;;;;;;14.33;13.00;;;;;14.94;100.00;100711.44;5011263;28;45444;-80
2022/06/21 05:10:33;;;;;;;;;14.67;11.00;;;;;15.12;100.00;100729.81;4998157;28;47061;-81
2022/06/21 05:13:03;;;;;;;;;16.33;15.00;;;;;15.13;100.00;100737.03;5030775;28;45518;-79
2022/06/21 05:15:35;;;;;;;;;16.67;16.67;;;;;15.02;100.00;100743.41;5008249;28;45460;-78
2022/06/21 05:18:07;;;;;;;;;15.33;15.00;;;;;14.94;100.00;100720.56;5031241;28;45668;-80
2022/06/21 05:20:36;;;;;;;;;19.00;16.00;;;;;15.20;100.00;100765.38;5008744;28;46722;-79
2022/06/21 05:23:08;;;;;;;;;17.67;12.67;;;;;15.14;100.00;100760.81;5022766;28;46334;-83
2022/06/21 05:25:43;;;;;;;;;16.00;14.00;;;;;15.37;100.00;100795.91;5018534;28;45894;-81
2022/06/21 05:28:46;;;;;;;;;14.67;13.67;;;;;15.37;100.00;100776.53;5025043;28;45998;-83
2022/06/21 05:31:45;;;;;;;;;12.67;12.00;;;;;15.63;100.00;100785.44;4998813;28;45619;-84
2022/06/21 05:34:25;;;;;;;;;13.67;13.67;;;;;15.40;100.00;100714.44;5019060;28;45731;-80
2022/06/21 05:37:23;;;;;;;;;12.67;11.67;;;;;15.97;100.00;100780.97;5024812;28;45442;-80
2022/06/21 05:39:52;;;;;;;;;15.00;15.00;;;;;16.10;100.00;100767.97;5026354;28;45034;-79
2022/06/21 05:42:24;;;;;;;;;12.33;12.00;;;;;16.33;100.00;100753.19;5038369;28;47808;-78
2022/06/21 05:44:55;;;;;;;;;16.67;12.67;;;;;16.34;100.00;100702.28;5031897;28;45477;-80
2022/06/21 05:47:40;;;;;;;;;13.33;13.33;;;;;17.31;100.00;100752.97;5016271;28;45866;-78
2022/06/21 05:50:10;;;;;;;;;14.33;12.00;;;;;18.15;100.00;100754.69;5020046;28;45850;-82
2022/06/21 05:52:42;;;;;;;;;12.33;10.33;;;;;18.59;100.00;100736.28;5018157;28;45413;-78
2022/06/21 05:55:22;;;;;;;;;12.33;11.33;;;;;18.43;100.00;100738.03;5025159;28;45533;-79
2022/06/21 05:57:57;;;;;;;;;14.33;12.33;;;;;18.39;100.00;100748.03;5038863;28;45416;-79
2022/06/21 06:00:49;;;;;;;;;16.00;11.67;;;;;18.34;100.00;100735.75;5035588;28;45775;-82
2022/06/21 06:03:31;;;;;;;;;11.67;10.00;;;;;18.33;100.00;100724.91;5023445;28;46881;-78
2022/06/21 06:06:02;;;;;;;;;10.67;10.67;;;;;18.18;100.00;100712.53;5040424;28;45711;-86
2022/06/21 06:08:33;;;;;;;;;11.00;11.00;;;;;17.97;100.00;100663.44;5019223;28;46672;-82
2022/06/21 06:11:04;;;;;;;;;11.33;10.00;;;;;18.24;100.00;100707.03;5034424;28;46402;-81
2022/06/21 06:13:40;;;;;;;;;10.00;9.33;;;;;18.09;100.00;100693.84;5020737;28;47133;-80
2022/06/21 06:17:19;;;;;;;;;;;;;;;;;;;;;
2022/06/21 06:24:05;;;;;;;;;13.67;13.67;;;;;17.70;100.00;100625.38;4992545;28;45831;-89
2022/06/21 06:27:19;;;;;;;;;;;;;;;;;;;;;
2022/06/21 06:30:07;;;;;;;;;12.67;11.33;;;;;18.56;100.00;100636.81;4977187;28;72003;-88
2022/06/21 06:32:48;;;;;;;;;14.00;13.33;;;;;20.46;100.00;100674.75;5043671;28;45789;-88
2022/06/21 06:35:31;;;;;;;;;;;;;;;;;;;;;
2022/06/21 06:38:01;;;;;;;;;13.00;11.33;;;;;23.02;100.00;100636.81;5043879;28;74393;-88
2022/06/21 06:40:39;;;;;;;;;11.33;11.00;;;;;23.67;100.00;100622.38;5044482;28;45842;-80
2022/06/21 06:43:28;;;;;;;;;9.00;9.00;;;;;24.85;100.00;100682.31;5036472;28;45595;-80
2022/06/21 06:46:00;;;;;;;;;11.67;8.67;;;;;25.65;100.00;100658.94;5037490;28;45400;-79
2022/06/21 06:48:32;;;;;;;;;9.33;9.33;;;;;26.31;100.00;100695.19;5019253;28;46984;-80
2022/06/21 06:51:37;;;;;;;;;13.00;10.33;;;;;27.38;100.00;100713.38;5034309;28;45616;-85
2022/06/21 06:54:47;;;;;;;;;10.67;8.33;;;;;28.13;100.00;100683.31;5021869;28;45566;-85
2022/06/21 06:57:57;;;;;;;;;;;;;;;;;;;;;
2022/06/21 07:00:30;;;;;;;;;9.00;7.67;;;;;29.47;98.57;100644.13;4976907;28;76110;-81
2022/06/21 07:03:06;;;;;;;;;12.00;12.00;;;;;30.26;93.79;100698.22;5035149;28;45866;-86
2022/06/21 07:09:08;;;;;;;;;12.67;9.33;;;;;30.70;88.40;100684.53;4941113;28;45585;-86
2022/06/21 07:12:10;;;;;;;;;9.67;8.67;;;;;30.12;90.67;100732.41;4947768;28;45573;-89
2022/06/21 07:14:47;;;;;;;;;11.67;11.67;;;;;29.36;91.12;100661.44;5006287;28;44926;-81
2022/06/21 07:17:22;;;;;;;;;10.33;9.00;;;;;28.50;95.52;100685.81;5043001;28;44807;-88
2022/06/21 07:19:52;;;;;;;;;8.00;8.00;;;;;28.15;100.00;100750.66;5045588;28;46063;-86
2022/06/21 07:23:02;;;;;;;;;;;;;;;;;;;;;
2022/06/21 07:26:20;;;;;;;;;13.33;9.67;;;;;29.98;93.72;100735.47;5031225;28;72458;-84
2022/06/21 07:29:28;;;;;;;;;9.67;8.33;;;;;30.78;88.34;100711.09;4966456;28;45666;-84
2022/06/21 07:36:06;;;;;;;;;;;;;;;;;;;;;
2022/06/21 07:38:47;;;;;;;;;16.00;13.00;;;;;32.20;78.07;100724.97;4861640;28;71577;-82
2022/06/21 07:41:54;;;;;;;;;12.67;12.67;;;;;32.73;76.74;100695.75;5035618;28;45841;-83
2022/06/21 07:44:28;;;;;;;;;14.50;10.75;;;;;32.42;74.30;100676.56;4985968;28;45713;-81
2022/06/21 07:47:05;;;;;;;;;15.00;12.33;;;;;32.49;75.44;100727.88;4995522;28;47246;-80
2022/06/21 07:54:01;;;;;;;;;;;;;;;;;;;;;
2022/06/21 07:57:04;;;;;;;;;10.00;9.33;;;;;33.31;73.08;100751.38;4954646;28;74093;-81
2022/06/21 08:06:49;;;;;;;;;11.00;11.00;;;;;33.92;68.62;100708.28;5023411;28;44769;-87
2022/06/21 08:12:27;;;;;;;;;11.33;10.33;;;;;33.90;67.76;100732.59;5024767;28;45888;-85
2022/06/21 08:15:05;;;;;;;;;11.33;11.33;;;;;33.56;69.34;100641.94;5027358;28;45749;-84
2022/06/21 08:17:38;;;;;;;;;7.00;6.67;;;;;33.91;69.33;100722.84;5023882;28;45534;-86
2022/06/21 08:20:13;;;;;;;;;11.00;10.33;;;;;33.75;67.62;100714.34;5032539;28;45989;-84
2022/06/21 08:26:32;;;;;;;;;10.00;8.33;;;;;34.26;66.79;100740.00;5028447;28;44817;-88
2022/06/21 08:29:12;;;;;;;;;12.67;12.67;;;;;33.95;67.56;100729.47;5040060;28;45375;-82
2022/06/21 08:39:24;;;;;;;;;;;;;;;;;;;;;
2022/06/21 08:53:01;;;;;;;;;9.33;9.33;;;;;33.70;73.75;100751.56;5036939;28;44783;-87
2022/06/21 09:02:53;;;;;;;;;;;;;;;;;;;;;
2022/06/21 09:09:31;;;;;;;;;;;;;;;;;;;;;
2022/06/21 09:16:35;;;;;;;;;13.33;10.67;;;;;31.06;85.21;100728.34;4936419;28;45747;-84
2022/06/21 09:23:06;;;;;;;;;10.33;10.33;;;;;30.56;91.17;100723.66;4884492;29;45566;-80
2022/06/21 09:25:47;;;;;;;;;12.00;12.00;;;;;30.65;89.76;100718.72;4918210;28;45974;-83
2022/06/21 09:32:20;;;;;;;;;13.00;11.67;;;;;33.34;82.26;100734.41;4974645;28;46599;-86
2022/06/21 09:35:07;;;;;;;;;;;;;;;;;;;;;
2022/06/21 09:38:00;;;;;;;;;11.33;11.33;;;;;34.71;73.70;100734.88;4998375;28;72945;-88
2022/06/21 09:40:57;;;;;;;;;;;;;;;;;;;;;
2022/06/21 09:43:39;;;;;;;;;10.67;10.67;;;;;35.49;69.61;100676.94;4989111;28;72513;-90
2022/06/21 09:46:21;;;;;;;;;13.33;12.00;;;;;37.57;61.77;100703.75;4971811;28;45488;-87
2022/06/21 09:48:56;;;;;;;;;8.67;7.00;;;;;39.88;56.95;100726.47;5006586;22;46769;-71
2022/06/21 09:51:53;;;;;;;;;9.00;9.00;;;;;41.24;47.72;100723.53;5033018;28;46215;-70
2022/06/21 09:54:40;;;;;;;;;7.33;7.33;;;;;41.61;45.12;100714.22;5029253;28;47047;-70
2022/06/21 09:57:41;;;;;;;;;8.33;8.33;;;;;41.68;43.23;100715.41;5025491;28;45622;-71
2022/06/21 10:00:07;;;;;;;;;10.00;10.00;;;;;41.72;41.56;100719.06;5030484;28;45373;-71
2022/06/21 10:02:35;;;;;;;;;9.00;9.00;;;;;41.75;41.38;100715.38;5019434;28;45771;-71
2022/06/21 10:05:11;;;;;;;;;9.67;9.67;;;;;41.61;41.27;100717.09;5030287;28;45505;-71
2022/06/21 10:08:14;;;;;;;;;9.00;7.00;;;;;41.55;42.44;100715.91;5022676;28;45422;-71
2022/06/21 10:10:45;;;;;;;;;10.33;10.33;;;;;41.25;39.44;100705.84;5028194;28;45488;-70
2022/06/21 10:13:29;;;;;;;;;9.33;9.33;;;;;40.73;41.00;100705.72;5015752;28;47132;-69
2022/06/21 10:16:13;;;;;;;;;11.00;9.33;;;;;40.33;43.65;100691.47;5031212;28;45693;-70
2022/06/21 10:19:00;;;;;;;;;11.00;9.33;;;;;40.88;43.35;100698.69;5024136;28;45847;-71
2022/06/21 10:21:43;;;;;;;;;9.67;8.00;;;;;41.44;41.45;100695.03;5024066;28;45822;-71
2022/06/21 10:24:46;;;;;;;;;11.67;10.00;;;;;42.02;40.67;100689.56;5013870;28;46580;-73
2022/06/21 10:27:43;;;;;;;;;9.33;9.33;;;;;43.00;38.32;100689.25;5030581;28;45701;-70
2022/06/21 10:30:33;;;;;;;;;11.00;10.00;;;;;43.96;35.84;100685.16;5022787;28;45443;-70
2022/06/21 10:33:17;;;;;;;;;12.33;9.67;;;;;44.87;33.57;100682.06;5021776;28;45709;-70
2022/06/21 10:36:05;;;;;;;;;11.00;11.00;;;;;45.50;30.86;100680.16;5003874;28;45583;-70
2022/06/21 10:38:52;;;;;;;;;6.33;6.33;;;;;45.84;29.57;100673.09;5029673;28;45796;-71
2022/06/21 10:42:46;;;;;;;;;9.00;6.00;;;;;46.34;29.92;100666.69;5024228;28;45879;-71
2022/06/21 10:44:37;;;;;;;;;10.33;9.00;;;;;46.54;27.71;100661.97;5029158;28;45672;-72
2022/06/21 10:47:11;;;;;;;;;7.33;6.33;;;;;46.35;27.77;100653.00;5017331;28;46858;-72
2022/06/21 10:50:12;;;;;;;;;6.00;6.00;;;;;46.29;29.06;100640.34;5028760;28;45745;-73
2022/06/21 10:53:13;;;;;;;;;9.00;8.00;;;;;46.60;28.84;100646.44;5021009;28;45350;-73
2022/06/21 10:55:44;;;;;;;;;9.00;9.00;;;;;46.90;28.04;100647.16;4993041;28;45621;-71
2022/06/21 10:58:30;;;;;;;;;6.33;6.33;;;;;47.07;27.78;100647.88;5026429;28;45618;-70
2022/06/21 11:01:18;;;;;;;;;6.00;6.00;;;;;47.19;26.97;100641.25;5031669;28;45473;-73
2022/06/21 11:04:14;;;;;;;;;8.00;8.00;;;;;47.38;26.86;100635.66;5029301;28;45667;-70
2022/06/21 11:07:08;;;;;;;;;7.00;7.00;;;;;47.37;26.96;100631.94;5031511;28;46237;-69
2022/06/21 11:09:52;;;;;;;;;8.33;8.33;;;;;46.94;26.59;100630.44;5029608;28;45976;-70
2022/06/21 11:15:12;;;;;;;;;9.67;9.00;;;;;45.78;27.92;100626.44;5029808;28;45568;-70
2022/06/21 11:18:11;;;;;;;;;11.00;10.33;;;;;44.91;29.93;100631.50;5008611;28;46999;-72
2022/06/21 11:21:28;;;;;;;;;8.00;8.00;;;;;44.13;31.46;100631.16;5006095;28;47059;-69
2022/06/21 11:24:11;;;;;;;;;8.00;8.00;;;;;43.15;33.03;100620.56;4977381;28;45670;-71
2022/06/21 11:26:52;;;;;;;;;8.67;8.33;;;;;42.19;36.75;100629.31;5031428;28;46594;-72
2022/06/21 11:29:38;;;;;;;;;8.00;8.00;;;;;41.13;39.48;100628.66;5024731;28;45855;-73
2022/06/21 11:32:22;;;;;;;;;8.67;8.67;;;;;39.59;44.87;100627.25;5019302;28;46554;-71
2022/06/21 11:35:07;;;;;;;;;9.67;9.33;;;;;38.31;49.91;100628.22;5019035;28;45371;-73
2022/06/21 11:37:56;;;;;;;;;10.00;10.00;;;;;36.97;57.13;100624.72;5031182;28;45402;-74
2022/06/21 11:40:33;;;;;;;;;8.33;8.33;;;;;35.94;63.68;100626.72;5027308;28;45687;-72
2022/06/21 11:43:02;;;;;;;;;8.67;8.67;;;;;35.28;68.28;100618.31;5017490;28;45466;-75
2022/06/21 11:45:59;;;;;;;;;11.67;10.33;;;;;34.59;71.20;100621.91;5029383;28;45641;-74
2022/06/21 11:49:10;;;;;;;;;6.33;6.33;;;;;33.52;76.13;100612.63;5023947;28;45374;-73
2022/06/21 11:52:07;;;;;;;;;6.33;6.33;;;;;33.00;80.88;100610.88;4964812;28;45752;-71
2022/06/21 11:55:02;;;;;;;;;10.00;10.00;;;;;32.56;83.68;100615.34;4959209;28;45788;-73
2022/06/21 11:57:59;;;;;;;;;17.00;11.00;;;;;32.23;86.29;100615.59;4968470;28;45359;-71
2022/06/21 12:00:44;;;;;;;;;10.00;8.00;;;;;31.91;89.34;100623.09;4951841;28;45464;-70
2022/06/21 12:03:24;;;;;;;;;12.00;11.67;;;;;31.54;92.50;100617.44;4969773;28;45638;-71
2022/06/21 12:05:58;;;;;;;;;11.67;10.33;;;;;31.29;95.38;100620.28;4973922;28;46187;-70
2022/06/21 12:08:52;;;;;;;;;10.00;9.00;;;;;31.07;98.61;100625.22;4971957;28;45721;-70
2022/06/21 12:11:43;;;;;;;;;10.00;10.00;;;;;30.93;100.00;100621.84;4971121;28;45670;-68
2022/06/21 12:14:39;;;;;;;;;9.75;9.25;;;;;30.74;100.00;100622.41;4970313;28;45796;-68
2022/06/21 12:17:10;;;;;;;;;11.00;9.33;;;;;30.39;100.00;100614.22;4955043;28;47446;-67
2022/06/21 12:19:40;;;;;;;;;9.33;9.33;;;;;30.15;100.00;100615.78;4970185;28;45746;-68
2022/06/21 12:22:28;;;;;;;;;13.67;10.00;;;;;29.96;100.00;100610.59;4970427;28;45772;-70
2022/06/21 12:24:54;;;;;;;;;9.67;9.67;;;;;29.54;100.00;100610.50;4971295;28;45483;-69
2022/06/21 12:27:20;;;;;;;;;11.33;11.33;;;;;29.29;100.00;100615.13;4971578;28;45751;-69
2022/06/21 12:29:46;;;;;;;;;12.67;11.33;;;;;29.10;100.00;100607.00;4970501;28;45510;-70
2022/06/21 12:32:24;;;;;;;;;10.33;10.33;;;;;28.99;100.00;100615.03;4954790;28;45760;-69
2022/06/21 12:35:01;;;;;;;;;11.33;11.33;;;;;28.77;100.00;100604.81;4957637;28;47090;-70
2022/06/21 12:37:45;;;;;;;;;11.00;9.33;;;;;28.63;100.00;100599.38;4965338;28;45960;-71
2022/06/21 12:40:34;;;;;;;;;9.67;9.67;;;;;28.57;100.00;100590.22;4956180;28;45909;-70
2022/06/21 12:43:11;;;;;;;;;10.00;10.00;;;;;28.55;100.00;100589.72;4971351;28;45392;-72
2022/06/21 12:45:48;;;;;;;;;13.00;11.33;;;;;28.45;100.00;100595.72;4966581;28;46219;-69
2022/06/21 12:48:58;;;;;;;;;8.67;8.67;;;;;28.21;100.00;100596.25;4965023;28;45959;-71
2022/06/21 12:51:37;;;;;;;;;9.00;9.00;;;;;28.06;100.00;100587.09;4964975;28;45531;-70
2022/06/21 12:54:18;;;;;;;;;8.67;8.67;;;;;28.04;100.00;100583.81;4966253;28;45878;-71
2022/06/21 12:57:05;;;;;;;;;11.33;11.33;;;;;28.06;100.00;100587.09;4969267;28;45749;-71
2022/06/21 12:59:42;;;;;;;;;10.00;10.00;;;;;28.08;100.00;100587.59;4964738;28;47147;-70
2022/06/21 13:02:26;;;;;;;;;9.67;8.67;;;;;28.00;100.00;100589.25;4968446;28;45392;-70
2022/06/21 13:05:10;;;;;;;;;13.67;12.00;;;;;27.85;100.00;100591.72;4963019;28;45374;-70
2022/06/21 13:08:00;;;;;;;;;10.67;10.67;;;;;27.72;100.00;100590.69;4966988;28;45544;-69
2022/06/21 13:11:04;;;;;;;;;10.33;10.33;;;;;27.66;100.00;100590.00;4964040;28;46679;-69
2022/06/21 13:13:54;;;;;;;;;13.00;12.00;;;;;27.58;100.00;100588.03;4939652;28;45538;-71
2022/06/21 13:16:53;;;;;;;;;11.33;11.00;;;;;27.55;100.00;100583.88;4963048;28;45441;-71
2022/06/21 13:19:27;;;;;;;;;11.67;11.67;;;;;27.54;100.00;100587.84;4956916;28;45428;-72
2022/06/21 13:22:11;;;;;;;;;14.50;13.00;;;;;27.54;100.00;100581.38;4967805;28;46412;-70
2022/06/21 13:25:14;;;;;;;;;13.00;13.00;;;;;27.52;100.00;100578.88;4966657;28;45619;-70
2022/06/21 13:28:09;;;;;;;;;10.67;10.67;;;;;27.55;100.00;100571.78;4966830;28;45794;-70
2022/06/21 13:30:37;;;;;;;;;9.67;9.67;;;;;27.72;100.00;100565.34;4957795;28;47059;-72
2022/06/21 13:33:20;;;;;;;;;11.00;10.67;;;;;27.76;100.00;100550.25;4971141;28;45658;-72
2022/06/21 13:35:54;;;;;;;;;14.67;12.67;;;;;27.88;100.00;100562.88;4968578;28;45710;-70
2022/06/21 13:38:31;;;;;;;;;19.00;18.33;;;;;28.00;100.00;100563.88;4966027;28;45863;-73
2022/06/21 13:42:37;;;;;;;;;16.33;15.00;;;;;28.18;100.00;100559.06;4964312;28;45383;-70
2022/06/21 13:44:11;;;;;;;;;12.67;11.00;;;;;28.24;100.00;100554.09;4962914;28;45450;-71
2022/06/21 13:46:45;;;;;;;;;13.67;11.00;;;;;28.15;100.00;100558.91;4969359;28;45864;-72